createdAt,value
2023-04-28T00:00:02.679Z,4.90
2023-04-28T00:02:30.583Z,5.47
2023-04-28T00:04:59.218Z,4.53
2023-04-28T00:07:28.467Z,6.73
2023-04-28T00:09:57.128Z,5.77
2023-04-28T00:12:24.965Z,5.17
2023-04-28T00:14:52.866Z,8.80
2023-04-28T00:17:20.640Z,5.47
2023-04-28T00:19:49.532Z,4.87
2023-04-28T00:22:17.290Z,4.87
2023-04-28T00:24:46.414Z,7.13
2023-04-28T00:27:14.240Z,9.80
2023-04-28T00:29:42.026Z,7.40
2023-04-28T00:32:10.480Z,4.33
2023-04-28T00:34:38.413Z,3.50
2023-04-28T00:37:06.234Z,3.40
2023-04-28T00:39:33.992Z,6.97
2023-04-28T00:42:04.231Z,5.73
2023-04-28T00:44:32.090Z,6.03
2023-04-28T00:47:00.188Z,5.50
2023-04-28T00:49:28.040Z,5.40
2023-04-28T00:51:55.878Z,2.93
2023-04-28T00:54:23.732Z,6.10
2023-04-28T00:56:51.793Z,4.10
2023-04-28T00:59:20.946Z,5.87
2023-04-28T01:01:49.052Z,3.83
2023-04-28T01:04:17.443Z,3.00
2023-04-28T01:06:45.800Z,7.27
2023-04-28T01:09:13.689Z,8.80
2023-04-28T01:11:41.430Z,6.17
2023-04-28T01:14:09.325Z,7.33
2023-04-28T01:16:39.834Z,6.30
2023-04-28T01:19:08.850Z,6.70
2023-04-28T01:21:36.611Z,7.20
2023-04-28T01:24:07.267Z,4.00
2023-04-28T01:26:35.132Z,4.13
2023-04-28T01:29:02.877Z,4.20
2023-04-28T01:31:31.731Z,8.57
2023-04-28T01:33:59.724Z,7.70
2023-04-28T01:36:28.501Z,4.30
2023-04-28T01:38:56.521Z,3.90
2023-04-28T01:41:25.677Z,4.70
2023-04-28T01:43:53.439Z,4.00
2023-04-28T01:46:21.301Z,5.50
2023-04-28T01:48:49.399Z,7.93
2023-04-28T01:51:17.116Z,5.73
2023-04-28T01:53:44.894Z,6.67
2023-04-28T01:56:12.593Z,9.13
2023-04-28T01:58:41.688Z,6.17
2023-04-28T02:01:09.489Z,8.07
2023-04-28T02:03:37.434Z,4.90
2023-04-28T02:06:05.907Z,5.03
2023-04-28T02:08:33.680Z,5.43
2023-04-28T02:11:01.811Z,4.77
2023-04-28T02:13:29.579Z,5.03
2023-04-28T02:16:01.807Z,4.07
2023-04-28T02:18:29.854Z,5.90
2023-04-28T02:20:57.686Z,6.87
2023-04-28T02:23:25.656Z,7.90
2023-04-28T02:26:01.953Z,5.57
2023-04-28T02:28:30.038Z,5.33
2023-04-28T02:31:06.506Z,5.20
2023-04-28T02:33:34.368Z,5.63
2023-04-28T02:36:02.338Z,4.83
2023-04-28T02:38:30.161Z,3.97
2023-04-28T02:41:01.392Z,9.00
2023-04-28T02:43:29.636Z,4.60
2023-04-28T02:45:57.556Z,4.47
2023-04-28T02:48:27.029Z,5.10
2023-04-28T02:50:55.028Z,7.33
2023-04-28T02:53:23.921Z,5.43
2023-04-28T02:55:51.737Z,5.80
2023-04-28T02:58:19.527Z,8.50
2023-04-28T03:00:47.758Z,7.00
2023-04-28T03:03:15.785Z,9.97
2023-04-28T03:05:45.102Z,4.10
2023-04-28T03:08:12.872Z,4.23
2023-04-28T03:10:40.762Z,5.90
2023-04-28T03:13:08.581Z,7.03
2023-04-28T03:15:36.459Z,5.30
2023-04-28T03:18:04.321Z,6.70
2023-04-28T03:20:32.144Z,6.37
2023-04-28T03:23:01.970Z,6.63
2023-04-28T03:25:29.730Z,6.87
2023-04-28T03:27:57.565Z,6.70
2023-04-28T03:30:25.329Z,4.10
2023-04-28T03:32:53.338Z,6.70
2023-04-28T03:35:21.658Z,4.87
2023-04-28T03:37:49.674Z,7.00
2023-04-28T03:40:19.205Z,6.60
2023-04-28T03:42:46.940Z,4.70
2023-04-28T03:45:14.698Z,4.57
2023-04-28T03:47:42.417Z,6.43
2023-04-28T03:50:10.677Z,11.77
2023-04-28T03:52:38.825Z,6.00
2023-04-28T03:55:07.393Z,6.47
2023-04-28T03:57:36.498Z,6.43
2023-04-28T04:00:04.763Z,5.77
2023-04-28T04:02:32.742Z,7.50
2023-04-28T04:05:00.778Z,7.37
2023-04-28T04:07:28.673Z,7.23
2023-04-28T04:09:56.419Z,7.70
2023-04-28T04:12:24.251Z,4.97
2023-04-28T04:14:53.370Z,5.33
2023-04-28T04:17:21.214Z,5.40
2023-04-28T04:19:49.116Z,7.07
2023-04-28T04:22:16.950Z,8.80
2023-04-28T04:24:44.777Z,6.83
2023-04-28T04:27:12.670Z,6.17
2023-04-28T04:29:40.524Z,7.97
2023-04-28T04:32:09.698Z,7.17
2023-04-28T04:34:37.445Z,8.40
2023-04-28T04:37:05.212Z,9.13
2023-04-28T04:39:33.175Z,12.07
2023-04-28T04:42:10.210Z,9.17
2023-04-28T04:44:44.951Z,8.77
2023-04-28T04:47:14.072Z,8.30
2023-04-28T04:49:41.836Z,11.00
2023-04-28T04:52:09.582Z,8.07
2023-04-28T04:54:37.375Z,9.40
2023-04-28T04:57:05.216Z,9.67
2023-04-28T04:59:33.054Z,11.47
2023-04-28T05:02:01.102Z,10.50
2023-04-28T05:04:30.343Z,10.27
2023-04-28T05:06:58.230Z,11.07
2023-04-28T05:09:25.954Z,11.67
2023-04-28T05:11:53.734Z,12.53
2023-04-28T05:14:21.599Z,9.83
2023-04-28T05:16:49.424Z,11.00
2023-04-28T05:19:17.503Z,9.17
2023-04-28T05:21:48.025Z,8.63
2023-04-28T05:24:16.217Z,11.67
2023-04-28T05:26:44.146Z,16.47
2023-04-28T05:29:11.962Z,10.70
2023-04-28T05:31:39.820Z,10.63
2023-04-28T05:34:07.615Z,8.40
2023-04-28T05:36:35.367Z,13.90
2023-04-28T05:39:04.557Z,12.30
2023-04-28T05:41:32.348Z,15.13
2023-04-28T05:44:00.154Z,14.17
2023-04-28T05:46:31.003Z,13.67
2023-04-28T05:48:59.353Z,11.67
2023-04-28T05:51:27.236Z,12.60
2023-04-28T05:53:55.027Z,10.60
2023-04-28T05:56:24.224Z,10.43
2023-04-28T05:58:52.099Z,14.50
2023-04-28T06:01:20.045Z,13.53
2023-04-28T06:03:47.995Z,11.13
2023-04-28T06:06:15.984Z,12.30
2023-04-28T06:08:44.393Z,11.73
2023-04-28T06:11:12.299Z,10.97
2023-04-28T06:13:41.463Z,14.30
2023-04-28T06:16:09.648Z,14.10
2023-04-28T06:18:37.385Z,12.40
2023-04-28T06:21:05.160Z,9.23
2023-04-28T06:23:32.857Z,12.27
2023-04-28T06:26:00.674Z,13.20
2023-04-28T06:28:28.459Z,11.77
2023-04-28T06:30:57.677Z,12.77
2023-04-28T06:33:25.491Z,13.27
2023-04-28T06:35:53.429Z,13.50
2023-04-28T06:38:21.263Z,15.73
2023-04-28T06:40:49.015Z,13.77
2023-04-28T06:43:16.839Z,16.05
2023-04-28T06:45:44.587Z,13.40
2023-04-28T06:48:13.776Z,13.50
2023-04-28T06:50:43.617Z,14.60
2023-04-28T06:53:11.820Z,15.63
2023-04-28T06:55:39.757Z,11.60
2023-04-28T06:58:07.478Z,12.80
2023-04-28T07:00:35.598Z,13.23
2023-04-28T07:03:03.504Z,12.53
2023-04-28T07:05:33.723Z,13.37
2023-04-28T07:08:01.490Z,18.17
2023-04-28T07:10:29.255Z,13.53
2023-04-28T07:12:57.108Z,14.10
2023-04-28T07:15:25.039Z,14.93
2023-04-28T07:17:52.823Z,12.93
2023-04-28T07:20:20.841Z,14.87
2023-04-28T07:22:50.009Z,20.40
2023-04-28T07:25:17.899Z,18.47
2023-04-28T07:27:47.049Z,41.57
2023-04-28T07:30:26.781Z,43.43
2023-04-28T07:32:56.200Z,17.60
2023-04-28T07:35:24.150Z,18.87
2023-04-28T07:37:53.982Z,17.63
2023-04-28T07:40:22.297Z,16.40
2023-04-28T07:42:50.244Z,18.07
2023-04-28T07:45:18.145Z,20.17
2023-04-28T07:47:45.988Z,21.80
2023-04-28T07:50:13.891Z,21.33
2023-04-28T07:52:41.755Z,22.80
2023-04-28T07:55:11.168Z,26.60
2023-04-28T07:57:42.964Z,24.27
2023-04-28T08:00:12.171Z,20.40
2023-04-28T08:02:40.248Z,26.73
2023-04-28T08:05:09.829Z,24.37
2023-04-28T08:07:38.421Z,30.77
2023-04-28T08:10:07.058Z,23.27
2023-04-28T08:12:36.281Z,25.33
2023-04-28T08:15:05.086Z,23.13
2023-04-28T08:17:32.853Z,28.53
2023-04-28T08:20:00.647Z,29.33
2023-04-28T08:22:28.390Z,27.27
2023-04-28T08:24:56.252Z,28.60
2023-04-28T08:27:25.688Z,26.17
2023-04-28T08:29:54.816Z,26.17
2023-04-28T08:32:22.682Z,27.27
2023-04-28T08:34:50.501Z,25.70
2023-04-28T08:37:18.515Z,30.87
2023-04-28T08:39:46.467Z,27.10
2023-04-28T08:42:14.784Z,30.97
2023-04-28T08:44:42.515Z,24.17
2023-04-28T08:47:13.959Z,22.90
2023-04-28T08:49:42.438Z,25.10
2023-04-28T08:52:14.249Z,22.20
2023-04-28T08:54:42.165Z,21.10
2023-04-28T08:57:10.737Z,19.80
2023-04-28T08:59:42.087Z,23.80
2023-04-28T09:02:11.752Z,23.27
2023-04-28T09:04:39.880Z,21.67
2023-04-28T09:07:12.325Z,24.50
2023-04-28T09:09:40.928Z,21.00
2023-04-28T09:12:09.192Z,21.10
2023-04-28T09:14:37.956Z,20.23
2023-04-28T09:17:13.324Z,33.27
2023-04-28T09:19:43.058Z,23.10
2023-04-28T09:22:25.322Z,20.10
2023-04-28T09:24:55.401Z,19.07
2023-04-28T09:27:28.071Z,26.67
2023-04-28T09:29:55.891Z,23.50
2023-04-28T09:32:27.794Z,19.03
2023-04-28T09:34:57.593Z,19.90
2023-04-28T09:37:30.800Z,16.60
2023-04-28T09:39:59.607Z,22.30
2023-04-28T09:42:35.287Z,17.77
2023-04-28T09:45:04.051Z,15.43
2023-04-28T09:47:35.031Z,16.07
2023-04-28T09:50:03.946Z,21.43
2023-04-28T09:52:31.765Z,18.87
2023-04-28T09:54:59.679Z,18.97
2023-04-28T09:57:28.659Z,17.57
2023-04-28T09:59:56.728Z,18.17
2023-04-28T10:02:42.591Z,18.93
2023-04-28T10:05:13.899Z,22.40
2023-04-28T10:07:42.138Z,17.70
2023-04-28T10:10:10.468Z,20.13
2023-04-28T10:12:39.077Z,19.97
2023-04-28T10:15:08.900Z,20.73
2023-04-28T10:17:37.257Z,19.47
2023-04-28T10:20:06.614Z,17.83
2023-04-28T10:22:53.495Z,18.83
2023-04-28T10:25:28.167Z,17.80
2023-04-28T10:27:55.885Z,20.27
2023-04-28T10:30:28.204Z,20.80
2023-04-28T10:33:27.464Z,19.97
2023-04-28T10:35:55.672Z,19.50
2023-04-28T10:38:24.943Z,24.03
2023-04-28T10:40:53.871Z,20.93
2023-04-28T10:43:37.667Z,20.53
2023-04-28T10:46:07.331Z,20.33
2023-04-28T10:48:56.472Z,19.50
2023-04-28T10:51:34.248Z,21.60
2023-04-28T10:54:16.579Z,19.73
2023-04-28T10:57:20.869Z,21.60
2023-04-28T10:59:52.346Z,18.40
2023-04-28T11:02:47.150Z,19.30
2023-04-28T11:05:16.410Z,22.60
2023-04-28T11:08:29.049Z,18.37
2023-04-28T11:11:31.292Z,20.93
2023-04-28T11:14:32.669Z,19.03
2023-04-28T11:17:02.883Z,18.03
2023-04-28T11:19:33.152Z,19.00
2023-04-28T11:22:02.135Z,17.37
2023-04-28T11:24:31.063Z,20.50
2023-04-28T11:27:00.614Z,20.00
2023-04-28T11:29:36.253Z,16.07
2023-04-28T11:32:04.391Z,18.20
2023-04-28T11:34:32.718Z,18.60
2023-04-28T11:37:00.866Z,17.60
2023-04-28T11:39:29.957Z,17.53
2023-04-28T11:42:00.550Z,19.97
2023-04-28T11:44:30.098Z,21.13
2023-04-28T11:47:01.587Z,17.27
2023-04-28T11:49:30.506Z,15.77
2023-04-28T11:52:00.444Z,17.23
2023-04-28T11:54:29.367Z,14.07
2023-04-28T11:57:01.169Z,15.13
2023-04-28T11:59:30.873Z,14.20
2023-04-28T12:02:00.864Z,12.93
2023-04-28T12:04:33.113Z,11.60
2023-04-28T12:07:07.885Z,10.43
2023-04-28T12:09:36.343Z,11.10
2023-04-28T12:12:06.998Z,11.00
2023-04-28T12:14:54.862Z,10.33
2023-04-28T12:17:26.768Z,13.90
2023-04-28T12:19:54.681Z,11.23
2023-04-28T12:22:22.738Z,9.63
2023-04-28T12:25:04.642Z,10.70
2023-04-28T12:27:33.743Z,10.90
2023-04-28T12:30:01.504Z,9.03
2023-04-28T12:32:39.706Z,12.83
2023-04-28T12:35:08.633Z,9.77
2023-04-28T12:37:38.360Z,9.40
2023-04-28T12:40:07.240Z,10.33
2023-04-28T12:42:36.603Z,7.70
2023-04-28T12:45:04.852Z,9.27
2023-04-28T12:47:33.323Z,7.70
2023-04-28T12:50:01.421Z,8.70
2023-04-28T12:52:29.577Z,6.93
2023-04-28T12:54:57.478Z,7.63
2023-04-28T12:57:25.281Z,7.23
2023-04-28T12:59:56.118Z,8.97
2023-04-28T13:02:24.063Z,7.30
2023-04-28T13:04:53.051Z,10.17
2023-04-28T13:07:22.022Z,8.60
2023-04-28T13:09:49.782Z,7.87
2023-04-28T13:12:17.526Z,9.90
2023-04-28T13:14:45.286Z,9.27
2023-04-28T13:17:14.434Z,9.80
2023-04-28T13:19:42.323Z,9.23
2023-04-28T13:22:10.377Z,10.60
2023-04-28T13:24:38.096Z,9.17
2023-04-28T13:27:09.759Z,10.20
2023-04-28T13:29:38.038Z,8.73
2023-04-28T13:32:06.353Z,10.13
2023-04-28T13:34:35.822Z,10.73
2023-04-28T13:37:03.580Z,12.43
2023-04-28T13:39:31.320Z,12.03
2023-04-28T13:41:59.114Z,12.00
2023-04-28T13:44:26.953Z,11.83
2023-04-28T13:46:54.725Z,12.30
2023-04-28T13:49:23.782Z,12.73
2023-04-28T13:51:52.890Z,15.77
2023-04-28T13:54:21.308Z,16.27
2023-04-28T13:56:49.451Z,16.67
2023-04-28T13:59:17.299Z,15.83
2023-04-28T14:01:45.469Z,12.00
2023-04-28T14:04:13.373Z,14.17
2023-04-28T14:06:42.327Z,15.93
2023-04-28T14:09:11.668Z,16.57
2023-04-28T14:11:39.479Z,14.60
2023-04-28T14:14:07.170Z,13.50
2023-04-28T14:16:34.963Z,14.73
2023-04-28T14:19:02.806Z,14.77
2023-04-28T14:21:31.202Z,16.47
2023-04-28T14:23:59.036Z,15.57
2023-04-28T14:26:28.485Z,16.53
2023-04-28T14:28:56.348Z,16.83
2023-04-28T14:31:24.924Z,17.07
2023-04-28T14:33:52.686Z,18.43
2023-04-28T14:36:20.679Z,14.90
2023-04-28T14:38:48.557Z,15.43
2023-04-28T14:41:16.347Z,16.53
2023-04-28T14:43:46.207Z,17.33
2023-04-28T14:46:14.018Z,15.13
2023-04-28T14:48:41.752Z,14.37
2023-04-28T14:51:09.691Z,13.93
2023-04-28T14:53:37.462Z,11.77
2023-04-28T14:56:17.826Z,10.87
2023-04-28T14:58:48.555Z,11.80
2023-04-28T15:01:16.697Z,10.00
2023-04-28T15:03:44.640Z,10.50
2023-04-28T15:06:13.375Z,12.80
2023-04-28T15:08:41.316Z,11.27
2023-04-28T15:11:09.267Z,15.30
2023-04-28T15:13:37.634Z,10.33
2023-04-28T15:16:07.567Z,9.47
2023-04-28T15:18:36.477Z,10.47
2023-04-28T15:21:04.351Z,10.60
2023-04-28T15:23:32.096Z,11.50
2023-04-28T15:25:59.867Z,11.00
2023-04-28T15:28:28.172Z,10.60
2023-04-28T15:30:56.197Z,11.83
2023-04-28T15:33:25.388Z,10.47
2023-04-28T15:35:53.161Z,10.47
2023-04-28T15:38:21.120Z,11.27
2023-04-28T15:40:49.790Z,11.80
2023-04-28T15:43:17.623Z,11.77
2023-04-28T15:45:46.994Z,9.27
2023-04-28T15:48:15.442Z,10.20
2023-04-28T15:50:44.754Z,9.63
2023-04-28T15:53:12.530Z,9.30
2023-04-28T15:55:40.266Z,9.70
2023-04-28T15:58:09.427Z,12.60
2023-04-28T16:00:37.291Z,12.37
2023-04-28T16:03:06.122Z,12.07
2023-04-28T16:05:33.980Z,10.93
2023-04-28T16:08:03.093Z,12.73
2023-04-28T16:10:31.169Z,11.47
2023-04-28T16:12:59.013Z,12.43
2023-04-28T16:15:26.826Z,11.43
2023-04-28T16:17:56.931Z,10.40
2023-04-28T16:20:24.924Z,37.33
2023-04-28T16:22:53.411Z,18.70
2023-04-28T16:25:23.803Z,11.60
2023-04-28T16:27:51.911Z,11.67
2023-04-28T16:30:19.978Z,12.17
2023-04-28T16:32:47.868Z,5.10
2023-04-28T16:35:16.037Z,5.77
2023-04-28T16:37:44.161Z,6.07
2023-04-28T16:40:13.238Z,9.30
2023-04-28T16:42:43.569Z,5.70
2023-04-28T16:45:12.076Z,5.60
2023-04-28T16:47:42.371Z,4.33
2023-04-28T16:50:11.442Z,2.77
2023-04-28T16:52:39.214Z,5.33
2023-04-28T16:55:08.175Z,3.80
2023-04-28T16:57:36.182Z,3.70
2023-04-28T17:00:06.206Z,3.80
2023-04-28T17:02:34.595Z,3.00
2023-04-28T17:05:02.506Z,4.13
2023-04-28T17:07:30.276Z,2.10
2023-04-28T17:09:58.157Z,1.70
2023-04-28T17:12:25.930Z,2.67
2023-04-28T17:14:54.626Z,1.87
2023-04-28T17:17:23.863Z,1.93
2023-04-28T17:19:51.840Z,2.57
2023-04-28T17:22:20.490Z,1.67
2023-04-28T17:24:48.276Z,3.23
2023-04-28T17:27:16.217Z,1.70
2023-04-28T17:29:44.313Z,1.97
2023-04-28T17:32:12.177Z,1.30
2023-04-28T17:34:41.649Z,1.33
2023-04-28T17:37:09.447Z,3.00
2023-04-28T17:39:37.208Z,2.80
2023-04-28T17:42:05.268Z,2.70
2023-04-28T17:44:33.052Z,1.60
2023-04-28T17:47:01.302Z,1.40
2023-04-28T17:49:29.253Z,2.13
2023-04-28T17:51:58.391Z,3.40
2023-04-28T17:54:26.168Z,2.23
2023-04-28T17:56:54.784Z,1.53
2023-04-28T17:59:22.619Z,1.20
2023-04-28T18:01:50.470Z,1.30
2023-04-28T18:04:18.358Z,4.87
2023-04-28T18:06:46.206Z,1.63
2023-04-28T18:09:15.476Z,1.67
2023-04-28T18:11:43.276Z,1.97
2023-04-28T18:14:11.048Z,1.40
2023-04-28T18:16:39.066Z,1.60
2023-04-28T18:19:06.982Z,1.60
2023-04-28T18:21:35.146Z,1.60
2023-04-28T18:24:02.954Z,1.80
2023-04-28T18:26:32.132Z,2.20
2023-04-28T18:28:59.918Z,2.57
2023-04-28T18:31:27.869Z,2.33
2023-04-28T18:33:55.691Z,1.87
2023-04-28T18:36:23.504Z,3.60
2023-04-28T18:38:51.282Z,6.33
2023-04-28T18:41:19.756Z,4.83
2023-04-28T18:43:48.964Z,5.40
2023-04-28T18:46:16.866Z,1.70
2023-04-28T18:48:44.861Z,3.87
2023-04-28T18:51:12.703Z,2.30
2023-04-28T18:53:40.511Z,1.70
2023-04-28T18:56:08.266Z,1.97
2023-04-28T18:58:37.132Z,1.73
2023-04-28T19:01:06.364Z,3.60
2023-04-28T19:03:34.289Z,3.30
2023-04-28T19:06:02.114Z,3.20
2023-04-28T19:08:29.978Z,2.83
2023-04-28T19:10:58.792Z,1.60
2023-04-28T19:13:26.670Z,2.53
2023-04-28T19:15:56.246Z,1.80
2023-04-28T19:18:25.496Z,2.07
2023-04-28T19:21:00.733Z,3.67
2023-04-28T19:23:28.878Z,6.27
2023-04-28T19:25:57.608Z,3.30
2023-04-28T19:28:26.198Z,3.27
2023-04-28T19:30:54.492Z,3.50
2023-04-28T19:33:26.206Z,4.17
2023-04-28T19:35:57.233Z,2.87
2023-04-28T19:38:25.153Z,3.17
2023-04-28T19:40:59.818Z,3.53
2023-04-28T19:43:27.742Z,2.53
2023-04-28T19:45:55.532Z,3.47
2023-04-28T19:48:23.395Z,3.57
2023-04-28T19:50:51.303Z,2.33
2023-04-28T19:53:20.520Z,3.47
2023-04-28T19:55:48.357Z,5.23
2023-04-28T19:58:16.339Z,4.30
2023-04-28T20:00:45.354Z,3.03
2023-04-28T20:03:14.819Z,6.60
2023-04-28T20:05:42.945Z,4.47
2023-04-28T20:08:10.926Z,3.57
2023-04-28T20:10:40.114Z,4.20
2023-04-28T20:13:08.066Z,5.20
2023-04-28T20:15:36.248Z,6.13
2023-04-28T20:18:04.185Z,3.77
2023-04-28T20:20:31.993Z,4.67
2023-04-28T20:22:59.730Z,8.80
2023-04-28T20:25:27.903Z,4.87
2023-04-28T20:27:57.114Z,7.30
2023-04-28T20:30:25.249Z,6.90
2023-04-28T20:32:53.026Z,8.77
2023-04-28T20:35:22.886Z,5.23
2023-04-28T20:37:50.614Z,8.60
2023-04-28T20:40:18.637Z,4.97
2023-04-28T20:42:46.346Z,4.77
2023-04-28T20:45:15.573Z,4.67
2023-04-28T20:47:43.629Z,5.67
2023-04-28T20:50:12.427Z,7.73
2023-04-28T20:52:40.215Z,4.63
2023-04-28T20:55:09.558Z,5.43
2023-04-28T20:57:37.314Z,6.13
2023-04-28T21:00:08.008Z,4.37
2023-04-28T21:02:37.965Z,3.50
2023-04-28T21:05:06.307Z,3.80
2023-04-28T21:07:34.092Z,3.00
2023-04-28T21:10:01.883Z,5.20
2023-04-28T21:12:29.650Z,2.77
2023-04-28T21:14:59.834Z,3.70
2023-04-28T21:17:27.643Z,2.37
2023-04-28T21:19:57.467Z,2.13
2023-04-28T21:22:26.153Z,2.63
2023-04-28T21:24:54.886Z,4.40
2023-04-28T21:27:22.716Z,1.50
2023-04-28T21:29:51.259Z,2.23
2023-04-28T21:32:19.907Z,2.90
2023-04-28T21:34:49.101Z,2.87
2023-04-28T21:37:18.482Z,2.03
2023-04-28T21:39:47.063Z,4.90
2023-04-28T21:42:15.142Z,2.50
2023-04-28T21:44:42.910Z,1.70
2023-04-28T21:47:10.786Z,1.40
2023-04-28T21:49:38.865Z,1.50
2023-04-28T21:52:06.683Z,2.80
2023-04-28T21:54:35.946Z,1.40
2023-04-28T21:57:04.065Z,1.30
2023-04-28T21:59:31.919Z,2.20
2023-04-28T22:02:00.076Z,1.53
2023-04-28T22:04:28.835Z,2.40
2023-04-28T22:06:57.424Z,1.90
2023-04-28T22:09:25.874Z,6.53
2023-04-28T22:11:55.090Z,1.93
2023-04-28T22:14:39.455Z,3.30
2023-04-28T22:17:09.519Z,3.93
2023-04-28T22:19:37.397Z,2.67
2023-04-28T22:22:05.498Z,4.63
2023-04-28T22:24:33.616Z,4.10
2023-04-28T22:27:03.380Z,1.90
2023-04-28T22:29:31.321Z,2.53
2023-04-28T22:31:59.922Z,1.77
2023-04-28T22:34:27.934Z,1.90
2023-04-28T22:36:55.695Z,2.20
2023-04-28T22:39:25.125Z,2.37
2023-04-28T22:41:53.419Z,1.73
2023-04-28T22:44:22.791Z,1.67
2023-04-28T22:46:50.593Z,2.20
2023-04-28T22:49:24.393Z,2.37
2023-04-28T22:51:52.352Z,2.20
2023-04-28T22:54:20.122Z,2.43
2023-04-28T22:56:48.134Z,1.73
2023-04-28T22:59:16.046Z,2.83
2023-04-28T23:01:45.313Z,1.70
2023-04-28T23:04:13.652Z,1.90
2023-04-28T23:06:41.718Z,4.70
2023-04-28T23:09:10.373Z,1.80
2023-04-28T23:11:38.544Z,2.50
2023-04-28T23:14:06.424Z,1.80
2023-04-28T23:16:34.320Z,3.20
2023-04-28T23:19:03.747Z,1.60
2023-04-28T23:21:32.046Z,3.27
2023-04-28T23:23:59.772Z,1.57
2023-04-28T23:26:27.874Z,1.70
2023-04-28T23:28:55.891Z,2.27
2023-04-28T23:31:23.861Z,2.43
2023-04-28T23:33:52.001Z,2.17
2023-04-28T23:36:21.374Z,1.63
2023-04-28T23:38:49.329Z,3.20
2023-04-28T23:41:17.057Z,2.30
2023-04-28T23:43:44.808Z,3.03
2023-04-28T23:46:12.615Z,2.67
2023-04-28T23:48:40.402Z,2.40
2023-04-28T23:51:08.248Z,3.70
2023-04-28T23:53:37.323Z,2.33
2023-04-28T23:56:05.544Z,2.67
2023-04-28T23:58:33.275Z,3.30
